Time;durP1;ratioP1;P1;durP2;ratioP2;P2;SDS_P1;SDS_P2;PMS_P1;PMS_P2;Temp;Humidity;BMP_temperature;BMP_pressure;BME280_temperature;BME280_humidity;BME280_pressure;Samples;Min_cycle;Max_cycle;Signal;HPM_P1;HPM_P2
2023/12/20 00:01:18;;;;;;;9.80;7.78;;;11.10;82.90;;;;;;4991029;28;20527;-59
2023/12/20 00:03:50;;;;;;;11.23;7.75;;;11.10;82.90;;;;;;4991109;28;20038;-59
2023/12/20 00:06:18;;;;;;;9.82;8.00;;;11.10;82.90;;;;;;4993723;28;20038;-59
2023/12/20 00:08:47;;;;;;;8.85;7.03;;;11.00;82.80;;;;;;4991732;28;20038;-59
2023/12/20 00:11:17;;;;;;;10.10;7.93;;;11.00;82.80;;;;;;4991750;28;20050;-59
2023/12/20 00:13:44;;;;;;;10.68;6.68;;;11.00;82.80;;;;;;4991116;28;20070;-58
2023/12/20 00:16:20;;;;;;;7.95;6.57;;;11.00;82.60;;;;;;4992431;28;20049;-58
2023/12/20 00:18:51;;;;;;;12.18;7.72;;;11.00;82.50;;;;;;4991536;28;20042;-58
2023/12/20 00:21:23;;;;;;;8.75;7.20;;;11.00;82.50;;;;;;4991127;28;20054;-59
2023/12/20 00:23:50;;;;;;;10.70;7.40;;;11.00;82.40;;;;;;4994101;28;20151;-58
2023/12/20 00:26:19;;;;;;;12.48;8.20;;;10.90;82.30;;;;;;4990492;28;20122;-59
2023/12/20 00:28:48;;;;;;;9.65;8.18;;;10.90;82.10;;;;;;4991396;28;20540;-59
2023/12/20 00:31:15;;;;;;;12.88;8.13;;;10.90;82.00;;;;;;4990100;28;20046;-59
2023/12/20 00:33:46;;;;;;;9.73;7.22;;;10.80;81.80;;;;;;5019097;22;20144;-63
2023/12/20 00:36:13;;;;;;;11.15;7.32;;;10.80;81.60;;;;;;5028835;28;20096;-64
2023/12/20 00:38:42;;;;;;;12.43;7.80;;;10.80;81.40;;;;;;5011273;28;20061;-64
2023/12/20 00:41:09;;;;;;;10.60;7.18;;;10.70;81.20;;;;;;5029916;28;20041;-64
2023/12/20 00:43:36;;;;;;;9.18;7.00;;;10.70;81.00;;;;;;5023063;28;20499;-64
2023/12/20 00:46:05;;;;;;;12.85;7.18;;;10.60;81.00;;;;;;5010266;28;20382;-64
2023/12/20 00:48:37;;;;;;;9.20;7.47;;;10.60;81.10;;;;;;5010583;28;20042;-65
2023/12/20 00:51:07;;;;;;;12.98;7.95;;;10.60;81.30;;;;;;5008069;28;20100;-62
2023/12/20 00:53:33;;;;;;;9.20;6.95;;;10.60;81.30;;;;;;5007688;28;20050;-61
2023/12/20 00:56:03;;;;;;;13.43;6.85;;;10.50;81.20;;;;;;5008663;28;20042;-62
2023/12/20 00:58:29;;;;;;;12.18;6.43;;;10.50;80.90;;;;;;5007179;28;20127;-62
2023/12/20 01:00:58;;;;;;;13.70;5.70;;;10.50;80.80;;;;;;5009277;28;20045;-61
2023/12/20 01:03:28;;;;;;;15.38;6.50;;;10.50;80.70;;;;;;5010225;28;20041;-62
2023/12/20 01:05:54;;;;;;;12.30;6.10;;;10.40;80.50;;;;;;5009754;28;20463;-62
2023/12/20 01:08:22;;;;;;;10.77;5.25;;;10.40;80.50;;;;;;5005918;28;20049;-62
2023/12/20 01:10:48;;;;;;;7.47;4.65;;;10.30;80.20;;;;;;4992459;28;20100;-62
2023/12/20 01:13:16;;;;;;;9.60;4.18;;;10.30;80.10;;;;;;5010247;28;20041;-62
2023/12/20 01:15:43;;;;;;;4.97;3.30;;;10.20;80.10;;;;;;5007859;28;20042;-62
2023/12/20 01:18:15;;;;;;;7.18;4.10;;;10.20;80.10;;;;;;5009614;28;20049;-61
2023/12/20 01:20:42;;;;;;;9.30;3.60;;;10.20;80.20;;;;;;5009502;28;20045;-62
2023/12/20 01:23:09;;;;;;;6.30;3.88;;;10.10;80.20;;;;;;5008235;28;20477;-62
2023/12/20 01:25:36;;;;;;;8.43;3.70;;;10.10;80.30;;;;;;5013602;28;20464;-61
2023/12/20 01:28:03;;;;;;;9.50;3.20;;;10.10;80.30;;;;;;5014228;28;20107;-61
2023/12/20 01:30:31;;;;;;;10.50;3.78;;;10.00;80.10;;;;;;5013590;28;20054;-62
2023/12/20 01:33:00;;;;;;;7.60;3.22;;;10.00;79.90;;;;;;5010863;28;20116;-62
2023/12/20 01:35:29;;;;;;;6.30;3.42;;;9.90;79.70;;;;;;5013204;28;20056;-63
2023/12/20 01:37:59;;;;;;;9.20;3.97;;;9.90;79.60;;;;;;5013879;28;20496;-62
2023/12/20 01:40:25;;;;;;;9.27;3.10;;;9.80;79.50;;;;;;5013685;28;20073;-62
2023/12/20 01:43:02;;;;;;;6.75;3.30;;;9.80;79.60;;;;;;5011112;28;20044;-62
2023/12/20 01:45:29;;;;;;;9.93;4.05;;;9.70;79.50;;;;;;5013016;28;20038;-61
2023/12/20 01:47:57;;;;;;;8.55;3.03;;;9.70;79.60;;;;;;5013921;28;20588;-62
2023/12/20 01:50:24;;;;;;;11.55;3.60;;;9.60;79.60;;;;;;5011077;28;20061;-62
2023/12/20 01:52:57;;;;;;;9.30;2.85;;;9.50;79.60;;;;;;5013583;28;20089;-61
2023/12/20 01:55:31;;;;;;;7.22;2.92;;;9.50;79.80;;;;;;5010148;28;20053;-62
2023/12/20 01:58:02;;;;;;;13.32;3.05;;;9.50;79.80;;;;;;5011632;28;20049;-62
2023/12/20 02:00:30;;;;;;;8.25;3.13;;;9.40;79.80;;;;;;5012131;28;20042;-62
2023/12/20 02:03:01;;;;;;;6.47;2.65;;;9.40;80.00;;;;;;5013686;28;20042;-62
2023/12/20 02:05:31;;;;;;;7.10;2.38;;;9.40;80.10;;;;;;4995615;28;20057;-62
2023/12/20 02:07:58;;;;;;;6.25;2.72;;;9.30;80.30;;;;;;5010267;28;20089;-61
2023/12/20 02:10:25;;;;;;;8.80;2.95;;;9.30;80.60;;;;;;4995203;28;20054;-62
2023/12/20 02:12:55;;;;;;;8.77;2.45;;;9.30;80.60;;;;;;5013454;28;20034;-61
2023/12/20 02:15:23;;;;;;;6.45;2.67;;;9.20;80.60;;;;;;5010126;28;20050;-62
2023/12/20 02:17:50;;;;;;;11.82;2.53;;;9.20;80.50;;;;;;5013080;28;20045;-62
2023/12/20 02:20:17;;;;;;;7.05;3.22;;;9.20;80.50;;;;;;5012966;28;20046;-62
2023/12/20 02:22:44;;;;;;;12.18;4.30;;;9.20;80.60;;;;;;5012690;28;20115;-62
2023/12/20 02:25:14;;;;;;;12.98;4.05;;;9.20;80.80;;;;;;5010152;28;20038;-62
2023/12/20 02:27:41;;;;;;;8.02;4.38;;;9.20;80.90;;;;;;5012904;28;20048;-62
2023/12/20 02:30:08;;;;;;;8.65;4.18;;;9.20;80.80;;;;;;5012892;28;20042;-62
2023/12/20 02:32:35;;;;;;;9.25;4.03;;;9.20;80.70;;;;;;5011007;28;20472;-61
2023/12/20 02:35:04;;;;;;;9.85;3.95;;;9.20;80.60;;;;;;5010204;28;20045;-62
2023/12/20 02:37:35;;;;;;;8.05;3.03;;;9.10;80.40;;;;;;5012309;28;20589;-62
2023/12/20 02:40:04;;;;;;;7.60;3.30;;;9.10;80.40;;;;;;5012395;28;20038;-61
2023/12/20 02:42:30;;;;;;;11.57;4.03;;;9.10;80.40;;;;;;5009946;28;20057;-61
2023/12/20 02:45:02;;;;;;;11.63;4.03;;;9.10;80.30;;;;;;5012410;28;20131;-62
2023/12/20 02:47:29;;;;;;;8.15;4.05;;;9.10;80.30;;;;;;5012481;28;20463;-63
2023/12/20 02:49:59;;;;;;;6.22;3.47;;;9.00;80.30;;;;;;5012592;28;20033;-62
2023/12/20 02:52:30;;;;;;;7.07;3.70;;;9.00;80.40;;;;;;5006567;28;20058;-62
2023/12/20 02:54:56;;;;;;;6.82;4.00;;;9.00;80.60;;;;;;5006427;28;20088;-61
2023/12/20 02:57:23;;;;;;;8.35;3.92;;;8.90;80.80;;;;;;5010018;28;20057;-62
2023/12/20 02:59:52;;;;;;;11.80;4.43;;;8.90;81.00;;;;;;5010580;28;20041;-62
2023/12/20 03:02:21;;;;;;;6.97;4.55;;;8.90;81.20;;;;;;5012252;28;20038;-62
2023/12/20 03:04:48;;;;;;;15.82;4.75;;;9.00;81.40;;;;;;5011636;28;20118;-62
2023/12/20 03:07:15;;;;;;;9.98;4.80;;;9.00;81.50;;;;;;5009539;28;20049;-61
2023/12/20 03:09:42;;;;;;;7.68;3.47;;;9.00;81.60;;;;;;5012061;28;20050;-62
2023/12/20 03:12:28;;;;;;;7.38;3.33;;;9.00;81.50;;;;;;5011930;28;20046;-62
2023/12/20 03:15:00;;;;;;;10.07;3.83;;;9.10;81.30;;;;;;5009655;28;20097;-61
2023/12/20 03:17:29;;;;;;;8.18;3.65;;;9.10;81.10;;;;;;5009943;28;20074;-62
2023/12/20 03:19:59;;;;;;;5.82;3.25;;;9.10;81.10;;;;;;5012065;28;20033;-61
2023/12/20 03:22:30;;;;;;;7.18;3.78;;;9.10;81.10;;;;;;4994771;28;20050;-62
2023/12/20 03:24:59;;;;;;;8.13;3.15;;;9.10;81.10;;;;;;5009116;28;20069;-62
2023/12/20 03:27:27;;;;;;;6.78;3.22;;;9.10;80.90;;;;;;5011680;28;20754;-62
2023/12/20 03:29:53;;;;;;;10.90;3.30;;;9.10;80.80;;;;;;5011634;28;20069;-62
2023/12/20 03:32:22;;;;;;;7.47;3.35;;;9.10;80.70;;;;;;5011927;28;20069;-62
2023/12/20 03:34:51;;;;;;;9.02;3.45;;;9.10;80.50;;;;;;5007214;28;20061;-62
2023/12/20 03:37:22;;;;;;;9.73;3.17;;;9.10;80.40;;;;;;5011670;28;20053;-61
2023/12/20 03:39:52;;;;;;;10.20;3.33;;;9.10;80.20;;;;;;5011885;28;20530;-62
2023/12/20 03:42:25;;;;;;;10.48;3.42;;;9.00;80.10;;;;;;5006674;28;20053;-62
2023/12/20 03:44:55;;;;;;;8.52;3.47;;;9.00;80.00;;;;;;5005506;28;20041;-62
2023/12/20 03:47:26;;;;;;;7.75;3.35;;;9.00;80.10;;;;;;5010731;28;20381;-62
2023/12/20 03:50:02;;;;;;;5.78;2.85;;;8.90;80.10;;;;;;5011648;28;20049;-61
2023/12/20 03:52:32;;;;;;;4.85;2.63;;;8.90;80.20;;;;;;5005766;28;20121;-62
2023/12/20 03:55:01;;;;;;;9.57;3.33;;;8.90;80.30;;;;;;5006060;28;20104;-62
2023/12/20 03:57:29;;;;;;;10.18;3.90;;;8.90;80.20;;;;;;5008799;28;20101;-62
2023/12/20 03:59:56;;;;;;;8.98;4.05;;;8.90;80.10;;;;;;5008833;28;20037;-62
2023/12/20 04:02:23;;;;;;;7.63;3.55;;;8.80;80.10;;;;;;5011583;28;20120;-63
2023/12/20 04:04:49;;;;;;;10.00;4.00;;;8.80;80.10;;;;;;5004482;28;20038;-63
2023/12/20 04:07:21;;;;;;;20.95;4.93;;;8.80;80.20;;;;;;5008967;28;20527;-63
2023/12/20 04:09:48;;;;;;;10.82;4.18;;;8.70;80.10;;;;;;5011014;28;20041;-63
2023/12/20 04:12:18;;;;;;;5.10;3.15;;;8.70;80.10;;;;;;5010515;28;20133;-62
2023/12/20 04:14:47;;;;;;;10.50;4.40;;;8.70;80.20;;;;;;5008508;28;20076;-63
2023/12/20 04:17:22;;;;;;;11.02;4.15;;;8.70;80.40;;;;;;5007918;28;20052;-63
2023/12/20 04:19:59;;;;;;;9.73;4.10;;;8.70;80.40;;;;;;5005352;28;20052;-63
2023/12/20 04:22:28;;;;;;;10.02;4.28;;;8.70;80.60;;;;;;4990109;28;20105;-62
2023/12/20 04:24:55;;;;;;;13.40;3.92;;;8.70;80.50;;;;;;5006580;28;20089;-62
2023/12/20 04:27:26;;;;;;;9.60;4.45;;;8.60;80.40;;;;;;5010851;28;20225;-62
2023/12/20 04:29:55;;;;;;;9.23;4.03;;;8.60;80.40;;;;;;5010796;28;20057;-63
2023/12/20 04:32:22;;;;;;;11.25;4.10;;;8.60;80.30;;;;;;5008406;28;20460;-62
2023/12/20 04:34:48;;;;;;;8.40;4.10;;;8.60;80.30;;;;;;5010249;28;20070;-62
2023/12/20 04:37:19;;;;;;;12.20;4.15;;;8.50;80.90;;;;;;5009799;28;20041;-63
2023/12/20 04:39:50;;;;;;;11.35;4.57;;;8.50;80.40;;;;;;5010540;28;20145;-62
2023/12/20 04:42:17;;;;;;;11.57;3.92;;;8.50;80.60;;;;;;5004113;28;20509;-63
2023/12/20 04:44:43;;;;;;;12.20;4.78;;;8.50;80.70;;;;;;5009910;28;20115;-63
2023/12/20 04:47:13;;;;;;;10.50;4.25;;;8.50;80.90;;;;;;5010308;28;20040;-62
2023/12/20 04:49:42;;;;;;;11.52;4.18;;;8.50;81.10;;;;;;5010336;28;20145;-62
2023/12/20 04:52:09;;;;;;;7.72;4.05;;;8.50;81.20;;;;;;5006992;28;20084;-63
2023/12/20 04:54:41;;;;;;;9.90;4.32;;;8.60;81.40;;;;;;5005433;28;20046;-63
2023/12/20 04:57:13;;;;;;;13.93;4.18;;;8.60;81.40;;;;;;4991366;28;20050;-62
2023/12/20 04:59:41;;;;;;;10.60;4.35;;;8.60;81.40;;;;;;5006610;28;20688;-62
2023/12/20 05:02:07;;;;;;;9.10;3.85;;;8.70;81.50;;;;;;5010114;28;20041;-63
2023/12/20 05:04:36;;;;;;;13.57;4.05;;;8.70;81.40;;;;;;5009809;28;20072;-62
2023/12/20 05:07:04;;;;;;;10.70;3.70;;;8.70;81.40;;;;;;5008201;28;20042;-62
2023/12/20 05:09:32;;;;;;;8.60;4.05;;;8.80;81.50;;;;;;5010044;28;20080;-62
2023/12/20 05:12:01;;;;;;;10.48;4.38;;;8.80;81.40;;;;;;4992546;28;20535;-62
2023/12/20 05:14:28;;;;;;;15.07;3.70;;;8.80;81.30;;;;;;5007221;28;20045;-62
2023/12/20 05:16:54;;;;;;;9.73;4.50;;;8.80;81.30;;;;;;5009753;28;20088;-63
2023/12/20 05:19:21;;;;;;;12.32;3.90;;;8.90;81.30;;;;;;4992851;28;20126;-63
2023/12/20 05:21:52;;;;;;;7.95;3.30;;;8.90;81.30;;;;;;5009819;28;20045;-63
2023/12/20 05:24:19;;;;;;;8.38;3.72;;;8.90;81.20;;;;;;5004391;28;20416;-63
2023/12/20 05:26:46;;;;;;;8.75;3.88;;;8.90;81.20;;;;;;5009833;28;20121;-63
2023/12/20 05:29:21;;;;;;;13.10;3.58;;;9.00;81.20;;;;;;5009891;28;20050;-62
2023/12/20 05:31:48;;;;;;;15.07;3.58;;;9.00;81.10;;;;;;5007955;28;20038;-63
2023/12/20 05:34:17;;;;;;;7.47;3.72;;;9.00;81.20;;;;;;5008611;28;20041;-62
2023/12/20 05:36:46;;;;;;;9.48;3.83;;;9.00;81.20;;;;;;4992890;28;20049;-63
2023/12/20 05:39:13;;;;;;;7.80;3.47;;;9.10;81.10;;;;;;5009495;28;20073;-62
2023/12/20 05:41:40;;;;;;;13.52;4.35;;;9.10;81.00;;;;;;5007980;28;20750;-63
2023/12/20 05:44:06;;;;;;;15.07;4.38;;;9.10;81.00;;;;;;5004895;28;20050;-63
2023/12/20 05:46:36;;;;;;;9.98;3.78;;;9.10;80.90;;;;;;5009288;28;20100;-62
2023/12/20 05:49:06;;;;;;;6.20;3.22;;;9.10;81.00;;;;;;5007181;28;20084;-62
2023/12/20 05:51:35;;;;;;;6.13;3.55;;;9.10;80.80;;;;;;5009701;28;20052;-63
2023/12/20 05:54:05;;;;;;;9.07;3.83;;;9.10;80.80;;;;;;5006932;28;20042;-63
2023/12/20 05:56:34;;;;;;;;;;;9.20;80.80;;;;;;5009588;28;20520;-62
2023/12/20 05:59:06;;;;;;;8.43;3.13;;;9.20;80.80;;;;;;5005746;28;19932;-62
2023/12/20 06:01:32;;;;;;;9.65;3.28;;;9.20;80.40;;;;;;5008852;28;20080;-63
2023/12/20 06:03:59;;;;;;;9.35;2.97;;;9.20;80.40;;;;;;5009297;28;20042;-63
2023/12/20 06:06:30;;;;;;;10.35;3.67;;;9.20;80.50;;;;;;5007496;28;20050;-63
2023/12/20 06:08:57;;;;;;;13.60;4.23;;;9.20;80.50;;;;;;4992260;28;20100;-63
2023/12/20 06:11:26;;;;;;;7.88;3.70;;;9.20;80.50;;;;;;5012680;28;20045;-63
2023/12/20 06:13:53;;;;;;;10.10;4.15;;;9.20;80.50;;;;;;4995525;28;20129;-62
2023/12/20 06:16:24;;;;;;;8.55;3.88;;;9.20;80.60;;;;;;5009668;28;20038;-62
2023/12/20 06:18:51;;;;;;;13.13;3.65;;;9.30;80.60;;;;;;5013150;28;20049;-62
2023/12/20 06:21:20;;;;;;;13.23;4.18;;;9.30;80.60;;;;;;5012972;28;20100;-62
2023/12/20 06:23:49;;;;;;;8.20;3.05;;;9.20;80.50;;;;;;5008822;28;20588;-63
2023/12/20 06:26:18;;;;;;;12.00;3.58;;;9.30;80.50;;;;;;5012636;28;20050;-63
2023/12/20 06:28:52;;;;;;;12.77;4.25;;;9.30;80.50;;;;;;5013182;28;20682;-63
2023/12/20 06:31:19;;;;;;;10.10;3.85;;;9.30;80.40;;;;;;5011521;28;20120;-63
2023/12/20 06:33:45;;;;;;;13.75;3.70;;;9.30;80.40;;;;;;5008447;28;20060;-63
2023/12/20 06:36:16;;;;;;;10.93;3.58;;;9.30;80.40;;;;;;5012172;28;20062;-63
2023/12/20 06:38:50;;;;;;;7.93;4.10;;;9.30;80.40;;;;;;5011221;28;20456;-62
2023/12/20 06:41:17;;;;;;;14.63;4.40;;;9.30;80.40;;;;;;5030001;22;20053;-57
2023/12/20 06:43:44;;;;;;;9.80;4.00;;;9.30;80.30;;;;;;5025565;28;20033;-56
2023/12/20 06:46:16;;;;;;;;;;;9.30;80.30;;;;;;5019743;28;20045;-58
2023/12/20 06:48:46;;;;;;;10.70;3.65;;;9.40;80.40;;;;;;5021687;28;19927;-54
2023/12/20 06:51:20;;;;;;;6.93;3.30;;;9.40;80.20;;;;;;5019904;28;20128;-57
2023/12/20 06:53:51;;;;;;;11.68;3.92;;;9.40;80.20;;;;;;5028381;28;20037;-59
2023/12/20 06:56:17;;;;;;;11.90;4.10;;;9.40;80.10;;;;;;5032281;28;20065;-59
2023/12/20 06:58:50;;;;;;;10.48;3.53;;;9.40;80.10;;;;;;5030723;28;20037;-58
2023/12/20 07:01:17;;;;;;;11.40;4.60;;;9.40;80.10;;;;;;5032508;28;20049;-56
2023/12/20 07:03:45;;;;;;;12.10;4.80;;;9.30;80.00;;;;;;5032761;28;20053;-60
2023/12/20 07:06:13;;;;;;;9.52;4.32;;;9.40;80.00;;;;;;5029863;28;20045;-58
2023/12/20 07:08:40;;;;;;;15.05;4.75;;;9.40;80.00;;;;;;5030738;28;20463;-56
2023/12/20 07:11:08;;;;;;;11.45;4.97;;;9.40;79.90;;;;;;5026557;28;20041;-56
2023/12/20 07:13:37;;;;;;;10.63;4.38;;;9.40;79.90;;;;;;5028541;28;20087;-55
2023/12/20 07:16:04;;;;;;;9.10;3.65;;;9.40;79.90;;;;;;5028450;28;20061;-60
2023/12/20 07:18:31;;;;;;;11.05;4.57;;;9.40;79.90;;;;;;5032685;28;20411;-57
2023/12/20 07:20:58;;;;;;;12.90;4.50;;;9.40;79.70;;;;;;5030825;28;20038;-57
2023/12/20 07:23:26;;;;;;;8.68;4.03;;;9.40;79.60;;;;;;5027573;28;20066;-59
2023/12/20 07:25:54;;;;;;;12.80;4.57;;;9.30;79.60;;;;;;5031689;28;20041;-58
2023/12/20 07:28:20;;;;;;;12.48;5.22;;;9.40;79.60;;;;;;5032333;28;20041;-58
2023/12/20 07:30:51;;;;;;;8.68;4.13;;;9.30;79.50;;;;;;5031218;28;20115;-60
2023/12/20 07:33:18;;;;;;;11.35;4.30;;;9.30;79.30;;;;;;5030497;28;20049;-59
2023/12/20 07:35:45;;;;;;;17.80;5.30;;;9.30;79.00;;;;;;5031691;28;20075;-56
2023/12/20 07:38:17;;;;;;;10.88;5.18;;;9.30;78.90;;;;;;5031291;28;20080;-58
2023/12/20 07:40:44;;;;;;;12.88;4.82;;;9.30;78.80;;;;;;5028748;28;20095;-57
2023/12/20 07:43:11;;;;;;;12.30;4.32;;;9.20;78.70;;;;;;5028246;28;20579;-57
2023/12/20 07:45:40;;;;;;;10.07;4.40;;;9.20;78.70;;;;;;5031291;28;20451;-60
2023/12/20 07:48:08;;;;;;;8.80;4.18;;;9.10;78.80;;;;;;5027431;28;20048;-58
2023/12/20 07:50:35;;;;;;;10.40;4.35;;;9.10;79.10;;;;;;5031644;28;20033;-58
2023/12/20 07:53:03;;;;;;;12.68;4.07;;;9.10;79.20;;;;;;5029682;28;20049;-58
2023/12/20 07:55:34;;;;;;;8.13;4.43;;;9.10;79.30;;;;;;5030803;28;20741;-55
2023/12/20 07:58:01;;;;;;;9.10;4.80;;;9.10;79.20;;;;;;5029257;28;20042;-56
2023/12/20 08:00:28;;;;;;;9.52;3.75;;;9.10;79.10;;;;;;5027225;28;20045;-56
2023/12/20 08:02:59;;;;;;;11.18;4.88;;;9.00;79.00;;;;;;5031336;28;20136;-57
2023/12/20 08:05:25;;;;;;;12.95;4.13;;;9.00;79.00;;;;;;5031198;28;20041;-57
2023/12/20 08:07:53;;;;;;;8.75;4.20;;;9.00;79.00;;;;;;5029060;28;20045;-58
2023/12/20 08:10:20;;;;;;;12.07;4.15;;;9.00;79.10;;;;;;5031311;28;20506;-56
2023/12/20 08:12:47;;;;;;;11.77;4.20;;;9.00;79.30;;;;;;5031428;28;20046;-58
2023/12/20 08:15:14;;;;;;;9.82;3.75;;;9.00;79.30;;;;;;5027411;28;20076;-61
2023/12/20 08:17:41;;;;;;;10.35;4.60;;;9.00;79.30;;;;;;5031056;28;20072;-58
2023/12/20 08:20:10;;;;;;;8.40;3.92;;;9.00;79.30;;;;;;5031040;28;20557;-58
2023/12/20 08:22:39;;;;;;;5.63;3.75;;;9.00;79.30;;;;;;5026216;28;20045;-59
2023/12/20 08:25:06;;;;;;;11.35;3.97;;;9.00;80.00;;;;;;5027204;28;20049;-58
2023/12/20 08:27:33;;;;;;;11.20;4.47;;;9.00;79.30;;;;;;5030906;28;20049;-55
2023/12/20 08:30:01;;;;;;;9.85;4.25;;;9.00;79.50;;;;;;5030771;28;20496;-60
2023/12/20 08:32:28;;;;;;;17.40;5.15;;;9.00;79.50;;;;;;5027737;28;20403;-55
2023/12/20 08:34:55;;;;;;;9.15;3.40;;;9.10;79.50;;;;;;5030604;28;20049;-57
2023/12/20 08:37:21;;;;;;;7.60;4.50;;;9.10;79.50;;;;;;5030940;28;20048;-59
2023/12/20 08:39:55;;;;;;;11.63;3.88;;;9.10;79.50;;;;;;5027846;28;20099;-56
2023/12/20 08:42:24;;;;;;;11.27;4.50;;;9.10;79.40;;;;;;5028821;28;20491;-57
2023/12/20 08:44:51;;;;;;;12.25;4.32;;;9.20;79.50;;;;;;5030783;28;20144;-60
2023/12/20 08:47:19;;;;;;;9.55;4.15;;;9.20;79.40;;;;;;5028148;28;20396;-59
2023/12/20 08:49:46;;;;;;;8.23;3.63;;;9.20;79.40;;;;;;5028606;28;20083;-57
2023/12/20 08:52:13;;;;;;;8.45;3.63;;;9.20;79.30;;;;;;5030398;28;20045;-58
2023/12/20 08:54:42;;;;;;;8.48;3.97;;;9.30;79.40;;;;;;5022876;28;20500;-56
2023/12/20 08:57:11;;;;;;;10.18;3.03;;;9.30;79.30;;;;;;5028622;28;20045;-56
2023/12/20 08:59:38;;;;;;;11.63;4.10;;;9.30;79.20;;;;;;5030514;28;20062;-55
2023/12/20 09:02:06;;;;;;;12.93;3.60;;;9.30;79.10;;;;;;5030418;28;20077;-60
2023/12/20 09:04:33;;;;;;;8.25;3.17;;;9.30;79.00;;;;;;5030253;28;20479;-57
2023/12/20 09:07:01;;;;;;;10.93;3.50;;;9.40;79.00;;;;;;5026847;28;20046;-54
2023/12/20 09:09:28;;;;;;;9.43;3.30;;;9.40;78.90;;;;;;5030220;28;20076;-56
2023/12/20 09:11:54;;;;;;;7.00;3.22;;;9.40;78.80;;;;;;5030277;28;20556;-57
2023/12/20 09:14:21;;;;;;;11.55;3.53;;;9.40;78.70;;;;;;5027691;28;20095;-59
2023/12/20 09:16:51;;;;;;;12.90;4.10;;;9.40;78.70;;;;;;5028033;28;20042;-57
2023/12/20 09:19:17;;;;;;;21.73;6.45;;;9.50;78.60;;;;;;5027383;28;20046;-58
2023/12/20 09:21:44;;;;;;;10.07;3.65;;;9.50;78.60;;;;;;5030244;28;20553;-57
2023/12/20 09:24:11;;;;;;;10.40;3.13;;;9.50;78.50;;;;;;5026732;28;20589;-60
2023/12/20 09:26:39;;;;;;;9.35;3.33;;;9.50;78.50;;;;;;5030323;28;20403;-57
2023/12/20 09:29:07;;;;;;;11.70;3.25;;;9.50;78.50;;;;;;5030360;28;20048;-58
2023/12/20 09:31:36;;;;;;;11.68;4.20;;;9.50;78.50;;;;;;5026490;28;20776;-58
2023/12/20 09:34:03;;;;;;;13.43;4.00;;;9.60;78.40;;;;;;5029243;28;20396;-57
2023/12/20 09:36:34;;;;;;;10.52;3.95;;;9.60;78.30;;;;;;5029904;28;20047;-57
2023/12/20 09:39:01;;;;;;;8.82;3.80;;;9.60;78.40;;;;;;5030469;28;20385;-56
2023/12/20 09:41:35;;;;;;;14.35;3.40;;;9.60;78.10;;;;;;5027507;28;20056;-57
2023/12/20 09:44:08;;;;;;;11.32;3.42;;;9.70;78.10;;;;;;5028082;28;20095;-59
2023/12/20 09:46:37;;;;;;;11.00;3.25;;;9.70;77.90;;;;;;5033863;28;20081;-58
2023/12/20 09:49:04;;;;;;;9.90;3.58;;;9.70;77.90;;;;;;5034026;28;20518;-58
2023/12/20 09:51:32;;;;;;;6.97;3.35;;;9.80;78.00;;;;;;5029998;28;20056;-58
2023/12/20 09:54:01;;;;;;;13.57;4.07;;;9.80;77.90;;;;;;5031324;28;20120;-58
2023/12/20 09:56:29;;;;;;;11.05;3.05;;;9.80;77.70;;;;;;5033546;28;20124;-54
2023/12/20 09:58:56;;;;;;;7.60;2.85;;;9.80;77.70;;;;;;5032061;28;20037;-57
2023/12/20 10:01:26;;;;;;;8.55;4.00;;;9.90;77.50;;;;;;5032151;28;20083;-59
2023/12/20 10:03:54;;;;;;;13.73;3.38;;;9.90;77.40;;;;;;5034136;28;20404;-57
2023/12/20 10:06:22;;;;;;;6.72;3.17;;;9.90;77.20;;;;;;5032000;28;20044;-59
2023/12/20 10:08:49;;;;;;;6.47;3.00;;;9.90;77.20;;;;;;5034178;28;20033;-56
2023/12/20 10:11:15;;;;;;;9.27;3.25;;;9.90;77.20;;;;;;5033200;28;20609;-58
2023/12/20 10:13:43;;;;;;;9.93;3.25;;;9.90;77.10;;;;;;5032133;28;20037;-57
2023/12/20 10:16:10;;;;;;;14.77;4.18;;;9.90;77.10;;;;;;5029977;28;20041;-58
2023/12/20 10:18:39;;;;;;;9.18;3.78;;;9.90;77.00;;;;;;5033621;28;20526;-56
2023/12/20 10:21:09;;;;;;;10.43;2.97;;;9.90;77.10;;;;;;5033226;28;20041;-56
2023/12/20 10:23:37;;;;;;;10.52;3.42;;;10.00;77.10;;;;;;5028515;28;20045;-59
2023/12/20 10:26:06;;;;;;;9.70;3.47;;;10.00;77.00;;;;;;5032449;28;20041;-57
2023/12/20 10:28:36;;;;;;;9.80;3.28;;;10.00;77.00;;;;;;5033297;28;20127;-56
2023/12/20 10:31:03;;;;;;;8.10;3.10;;;10.00;77.00;;;;;;5032983;28;20037;-59
2023/12/20 10:33:34;;;;;;;8.20;3.17;;;10.00;77.00;;;;;;5029629;28;20112;-57
2023/12/20 10:36:01;;;;;;;13.38;3.22;;;10.00;77.00;;;;;;5033163;28;20665;-57
2023/12/20 10:38:30;;;;;;;10.45;3.05;;;10.10;77.00;;;;;;5031786;28;20733;-59
2023/12/20 10:41:02;;;;;;;10.95;3.70;;;10.10;76.90;;;;;;5030599;28;20080;-59
2023/12/20 10:43:31;;;;;;;12.68;3.75;;;10.10;77.00;;;;;;5031894;28;20447;-58
2023/12/20 10:45:59;;;;;;;14.77;3.70;;;10.10;76.90;;;;;;5032738;28;20041;-57
2023/12/20 10:48:29;;;;;;;10.05;3.08;;;10.10;76.80;;;;;;5032281;28;20037;-58
2023/12/20 10:50:59;;;;;;;7.45;3.08;;;10.20;76.80;;;;;;5029546;28;20037;-57
2023/12/20 10:53:25;;;;;;;7.90;3.20;;;10.20;76.60;;;;;;5030845;28;20037;-57
2023/12/20 10:55:57;;;;;;;5.93;2.85;;;10.20;76.60;;;;;;5031480;28;20123;-57
2023/12/20 10:58:27;;;;;;;7.80;3.53;;;10.20;76.50;;;;;;5030983;28;20675;-55
2023/12/20 11:01:02;;;;;;;9.35;3.28;;;10.20;76.50;;;;;;5014944;28;20053;-57
2023/12/20 11:03:38;;;;;;;13.93;3.33;;;10.30;76.20;;;;;;5031746;28;20412;-57
2023/12/20 11:06:35;;;;;;;9.52;3.63;;;10.30;76.20;;;;;;5026927;28;20041;-59
2023/12/20 11:09:21;;;;;;;10.63;3.45;;;10.20;76.00;;;;;;5029085;28;20041;-57
2023/12/20 11:12:08;;;;;;;16.77;3.92;;;10.30;76.00;;;;;;5032545;28;20038;-58
2023/12/20 11:14:43;;;;;;;8.27;3.22;;;10.30;76.20;;;;;;5029679;28;20053;-59
2023/12/20 11:17:13;;;;;;;5.55;3.38;;;10.30;76.20;;;;;;5027539;28;20476;-55
2023/12/20 11:19:55;;;;;;;8.18;3.47;;;10.30;76.20;;;;;;5025984;28;20492;-57
2023/12/20 11:22:26;;;;;;;5.82;2.55;;;10.30;76.00;;;;;;5032243;28;20037;-58
2023/12/20 11:24:53;;;;;;;9.27;3.72;;;10.30;76.20;;;;;;5028451;28;20067;-55
2023/12/20 11:27:23;;;;;;;9.70;2.90;;;10.30;76.00;;;;;;5032117;28;20546;-59
2023/12/20 11:29:55;;;;;;;9.20;3.30;;;10.30;76.10;;;;;;5031919;28;20112;-58
2023/12/20 11:32:25;;;;;;;9.75;3.05;;;10.30;76.00;;;;;;5031838;28;20061;-59
2023/12/20 11:34:55;;;;;;;9.23;3.92;;;10.30;76.10;;;;;;5029271;28;20540;-54
2023/12/20 11:37:22;;;;;;;7.20;3.15;;;10.30;76.20;;;;;;5031971;28;20416;-54
2023/12/20 11:40:00;;;;;;;7.75;3.53;;;10.30;76.20;;;;;;5032186;28;20125;-59
2023/12/20 11:42:32;;;;;;;8.23;4.10;;;10.30;76.00;;;;;;5029316;28;20049;-56
2023/12/20 11:45:03;;;;;;;9.43;3.50;;;10.30;76.10;;;;;;5031835;28;20426;-59
2023/12/20 11:47:31;;;;;;;12.73;3.67;;;10.30;76.10;;;;;;5031789;28;20554;-54
2023/12/20 11:50:00;;;;;;;9.60;3.55;;;10.30;76.20;;;;;;5031971;28;20041;-57
2023/12/20 11:52:27;;;;;;;12.60;3.38;;;10.20;76.10;;;;;;5029284;28;20041;-57
2023/12/20 11:54:54;;;;;;;11.15;3.78;;;10.20;76.30;;;;;;5027030;28;20048;-56
2023/12/20 11:57:20;;;;;;;10.73;4.10;;;10.20;76.40;;;;;;5029937;28;20038;-57
2023/12/20 11:59:47;;;;;;;9.82;3.53;;;10.20;76.50;;;;;;5030693;28;20041;-59
2023/12/20 12:02:14;;;;;;;12.07;4.05;;;10.20;76.60;;;;;;5031337;28;20065;-59
2023/12/20 12:04:43;;;;;;;10.73;3.90;;;10.20;76.60;;;;;;5031508;28;20037;-57
2023/12/20 12:07:11;;;;;;;8.70;3.53;;;10.20;76.80;;;;;;5025892;28;20041;-60
2023/12/20 12:09:40;;;;;;;10.73;4.25;;;10.20;76.90;;;;;;5030310;28;20072;-59
2023/12/20 12:12:07;;;;;;;12.70;4.03;;;10.20;76.90;;;;;;5031362;28;20034;-59
2023/12/20 12:14:38;;;;;;;8.07;3.72;;;10.20;77.00;;;;;;5030978;28;20037;-57
2023/12/20 12:17:05;;;;;;;9.38;4.45;;;10.20;77.20;;;;;;5024140;28;20237;-55
2023/12/20 12:19:35;;;;;;;6.75;3.53;;;10.20;77.40;;;;;;5031074;28;20056;-58
2023/12/20 12:22:10;;;;;;;12.85;3.92;;;10.20;77.30;;;;;;5031126;28;20165;-59
2023/12/20 12:24:43;;;;;;;12.95;4.28;;;10.20;77.10;;;;;;5021593;28;20500;-57
2023/12/20 12:27:11;;;;;;;6.45;3.15;;;10.20;77.20;;;;;;5031161;28;20049;-57
2023/12/20 12:29:39;;;;;;;9.63;3.80;;;10.20;77.30;;;;;;5030782;28;20117;-57
2023/12/20 12:32:09;;;;;;;14.02;4.50;;;10.30;77.40;;;;;;5030895;28;20061;-59
2023/12/20 12:34:36;;;;;;;11.43;4.25;;;10.30;77.30;;;;;;5027910;28;20393;-56
2023/12/20 12:37:06;;;;;;;9.65;3.85;;;10.30;77.30;;;;;;5031131;28;20046;-57
2023/12/20 12:39:34;;;;;;;9.50;4.05;;;10.30;77.20;;;;;;5030563;28;20050;-55
2023/12/20 12:42:00;;;;;;;6.78;4.38;;;10.30;77.20;;;;;;5044229;22;20092;-58
2023/12/20 12:44:27;;;;;;;9.43;3.92;;;10.30;77.30;;;;;;5009456;28;20507;-58
2023/12/20 12:46:54;;;;;;;8.98;4.00;;;10.40;77.30;;;;;;5017088;28;20549;-59
2023/12/20 12:49:24;;;;;;;9.45;3.53;;;10.30;77.30;;;;;;5030488;28;20045;-58
2023/12/20 12:51:52;;;;;;;11.90;4.00;;;10.40;77.60;;;;;;5030651;28;20085;-57
2023/12/20 12:54:19;;;;;;;7.57;4.10;;;10.30;77.70;;;;;;5015488;28;20145;-59
2023/12/20 12:56:47;;;;;;;12.93;4.05;;;10.40;77.80;;;;;;5024379;28;20048;-56
2023/12/20 12:59:14;;;;;;;11.05;4.50;;;10.40;77.80;;;;;;5007158;28;20056;-57